sensor_id;sensor_type;location;lat;lon;timestamp;temperature;humidity
37050;DHT22;22958;51.232;6.826;2023-01-28T00:01:41;3.70;99.90
37050;DHT22;22958;51.232;6.826;2023-01-28T00:04:07;3.70;99.90
37050;DHT22;22958;51.232;6.826;2023-01-28T00:06:32;3.70;99.90
37050;DHT22;22958;51.232;6.826;2023-01-28T00:08:58;3.70;99.90
37050;DHT22;22958;51.232;6.826;2023-01-28T00:11:24;3.70;99.90
37050;DHT22;22958;51.232;6.826;2023-01-28T00:13:53;3.70;99.90
37050;DHT22;22958;51.232;6.826;2023-01-28T00:16:19;3.70;99.90
37050;DHT22;22958;51.232;6.826;2023-01-28T00:18:47;3.70;99.90
37050;DHT22;22958;51.232;6.826;2023-01-28T00:21:13;3.60;99.90
37050;DHT22;22958;51.232;6.826;2023-01-28T00:23:41;3.60;99.90
37050;DHT22;22958;51.232;6.826;2023-01-28T00:26:12;3.60;99.90
37050;DHT22;22958;51.232;6.826;2023-01-28T00:28:38;3.60;99.90
37050;DHT22;22958;51.232;6.826;2023-01-28T00:31:17;3.60;99.90
37050;DHT22;22958;51.232;6.826;2023-01-28T00:33:43;3.50;99.90
37050;DHT22;22958;51.232;6.826;2023-01-28T00:36:10;3.50;99.90
37050;DHT22;22958;51.232;6.826;2023-01-28T00:38:36;3.40;99.90
37050;DHT22;22958;51.232;6.826;2023-01-28T00:41:08;3.40;99.90
37050;DHT22;22958;51.232;6.826;2023-01-28T00:43:35;3.40;99.90
37050;DHT22;22958;51.232;6.826;2023-01-28T00:46:01;3.40;99.90
37050;DHT22;22958;51.232;6.826;2023-01-28T00:48:26;3.40;99.90
37050;DHT22;22958;51.232;6.826;2023-01-28T00:50:52;3.30;99.90
37050;DHT22;22958;51.232;6.826;2023-01-28T00:53:17;3.30;99.90
37050;DHT22;22958;51.232;6.826;2023-01-28T00:55:43;3.30;99.90
37050;DHT22;22958;51.232;6.826;2023-01-28T00:58:08;3.30;99.90
37050;DHT22;22958;51.232;6.826;2023-01-28T01:00:34;3.30;99.90
37050;DHT22;22958;51.232;6.826;2023-01-28T01:02:59;3.30;99.90
37050;DHT22;22958;51.232;6.826;2023-01-28T01:05:25;3.30;99.90
37050;DHT22;22958;51.232;6.826;2023-01-28T01:07:50;3.30;99.90
37050;DHT22;22958;51.232;6.826;2023-01-28T01:10:18;3.20;99.90
37050;DHT22;22958;51.232;6.826;2023-01-28T01:12:48;3.20;99.90
37050;DHT22;22958;51.232;6.826;2023-01-28T01:15:14;3.20;99.90
37050;DHT22;22958;51.232;6.826;2023-01-28T01:17:42;3.20;99.90
37050;DHT22;22958;51.232;6.826;2023-01-28T01:20:18;3.20;99.90
37050;DHT22;22958;51.232;6.826;2023-01-28T01:22:44;3.20;99.90
37050;DHT22;22958;51.232;6.826;2023-01-28T01:25:11;3.20;99.90
37050;DHT22;22958;51.232;6.826;2023-01-28T01:27:37;3.20;99.90
37050;DHT22;22958;51.232;6.826;2023-01-28T01:30:03;3.20;99.90
37050;DHT22;22958;51.232;6.826;2023-01-28T01:32:30;3.20;99.90
37050;DHT22;22958;51.232;6.826;2023-01-28T01:34:56;3.20;99.90
37050;DHT22;22958;51.232;6.826;2023-01-28T01:37:21;3.20;99.90
37050;DHT22;22958;51.232;6.826;2023-01-28T01:39:47;3.20;99.90
37050;DHT22;22958;51.232;6.826;2023-01-28T01:42:14;3.10;99.90
37050;DHT22;22958;51.232;6.826;2023-01-28T01:49:52;3.10;99.90
37050;DHT22;22958;51.232;6.826;2023-01-28T01:52:23;3.00;99.90
37050;DHT22;22958;51.232;6.826;2023-01-28T01:54:53;3.00;99.90
37050;DHT22;22958;51.232;6.826;2023-01-28T01:57:29;3.10;99.90
37050;DHT22;22958;51.232;6.826;2023-01-28T01:59:55;3.10;99.90
37050;DHT22;22958;51.232;6.826;2023-01-28T02:02:29;3.10;99.90
37050;DHT22;22958;51.232;6.826;2023-01-28T02:04:55;3.00;99.90
37050;DHT22;22958;51.232;6.826;2023-01-28T02:07:21;3.00;99.90
37050;DHT22;22958;51.232;6.826;2023-01-28T02:09:46;3.00;99.90
37050;DHT22;22958;51.232;6.826;2023-01-28T02:14:47;3.10;99.90
37050;DHT22;22958;51.232;6.826;2023-01-28T02:17:14;3.00;99.90
37050;DHT22;22958;51.232;6.826;2023-01-28T02:19:57;3.00;99.90
37050;DHT22;22958;51.232;6.826;2023-01-28T02:31:12;3.00;99.90
37050;DHT22;22958;51.232;6.826;2023-01-28T02:36:42;3.00;99.90
37050;DHT22;22958;51.232;6.826;2023-01-28T02:39:26;2.90;99.90
37050;DHT22;22958;51.232;6.826;2023-01-28T02:42:01;2.90;99.90
37050;DHT22;22958;51.232;6.826;2023-01-28T02:44:28;3.00;99.90
37050;DHT22;22958;51.232;6.826;2023-01-28T02:46:54;3.00;99.90
37050;DHT22;22958;51.232;6.826;2023-01-28T02:55:21;3.00;99.90
37050;DHT22;22958;51.232;6.826;2023-01-28T03:00:38;2.90;99.90
37050;DHT22;22958;51.232;6.826;2023-01-28T03:03:27;2.90;99.90
37050;DHT22;22958;51.232;6.826;2023-01-28T03:06:06;2.80;99.90
37050;DHT22;22958;51.232;6.826;2023-01-28T03:11:33;2.90;99.90
37050;DHT22;22958;51.232;6.826;2023-01-28T03:14:19;2.90;99.90
37050;DHT22;22958;51.232;6.826;2023-01-28T03:17:04;2.90;99.90
37050;DHT22;22958;51.232;6.826;2023-01-28T03:19:49;2.80;99.90
37050;DHT22;22958;51.232;6.826;2023-01-28T03:22:37;2.70;99.90
37050;DHT22;22958;51.232;6.826;2023-01-28T03:25:25;2.70;99.90
37050;DHT22;22958;51.232;6.826;2023-01-28T03:28:12;2.70;99.90
37050;DHT22;22958;51.232;6.826;2023-01-28T03:31:04;2.70;99.90
37050;DHT22;22958;51.232;6.826;2023-01-28T03:33:50;2.70;99.90
37050;DHT22;22958;51.232;6.826;2023-01-28T03:36:35;2.70;99.90
37050;DHT22;22958;51.232;6.826;2023-01-28T03:39:26;2.70;99.90
37050;DHT22;22958;51.232;6.826;2023-01-28T03:42:06;2.70;99.90
37050;DHT22;22958;51.232;6.826;2023-01-28T03:44:32;2.70;99.90
37050;DHT22;22958;51.232;6.826;2023-01-28T03:47:27;2.60;99.90
37050;DHT22;22958;51.232;6.826;2023-01-28T03:49:54;2.60;99.90
37050;DHT22;22958;51.232;6.826;2023-01-28T03:52:23;2.50;99.90
37050;DHT22;22958;51.232;6.826;2023-01-28T03:54:50;2.50;99.90
37050;DHT22;22958;51.232;6.826;2023-01-28T03:57:20;2.50;99.90
37050;DHT22;22958;51.232;6.826;2023-01-28T03:59:46;2.60;99.90
37050;DHT22;22958;51.232;6.826;2023-01-28T04:02:15;2.60;99.90
37050;DHT22;22958;51.232;6.826;2023-01-28T04:04:40;2.60;99.90
37050;DHT22;22958;51.232;6.826;2023-01-28T04:07:08;2.60;99.90
37050;DHT22;22958;51.232;6.826;2023-01-28T04:09:35;2.60;99.90
37050;DHT22;22958;51.232;6.826;2023-01-28T04:12:01;2.60;99.90
37050;DHT22;22958;51.232;6.826;2023-01-28T04:14:27;2.50;99.90
37050;DHT22;22958;51.232;6.826;2023-01-28T04:16:53;2.50;99.90
37050;DHT22;22958;51.232;6.826;2023-01-28T04:19:22;2.50;99.90
37050;DHT22;22958;51.232;6.826;2023-01-28T04:21:48;2.60;99.90
37050;DHT22;22958;51.232;6.826;2023-01-28T04:24:15;2.50;99.90
37050;DHT22;22958;51.232;6.826;2023-01-28T04:26:41;2.60;99.90
37050;DHT22;22958;51.232;6.826;2023-01-28T04:29:06;2.50;99.90
37050;DHT22;22958;51.232;6.826;2023-01-28T04:31:32;2.60;99.90
37050;DHT22;22958;51.232;6.826;2023-01-28T04:33:58;2.60;99.90
37050;DHT22;22958;51.232;6.826;2023-01-28T04:36:24;2.60;99.90
37050;DHT22;22958;51.232;6.826;2023-01-28T04:38:50;2.60;99.90
37050;DHT22;22958;51.232;6.826;2023-01-28T04:41:15;2.50;99.90
37050;DHT22;22958;51.232;6.826;2023-01-28T04:43:41;2.50;99.90
37050;DHT22;22958;51.232;6.826;2023-01-28T04:46:07;2.50;99.90
37050;DHT22;22958;51.232;6.826;2023-01-28T04:48:33;2.50;99.90
37050;DHT22;22958;51.232;6.826;2023-01-28T04:50:59;2.50;99.90
37050;DHT22;22958;51.232;6.826;2023-01-28T04:53:25;2.60;99.90
37050;DHT22;22958;51.232;6.826;2023-01-28T04:55:50;2.60;99.90
37050;DHT22;22958;51.232;6.826;2023-01-28T04:58:16;2.60;99.90
37050;DHT22;22958;51.232;6.826;2023-01-28T05:00:42;2.60;99.90
37050;DHT22;22958;51.232;6.826;2023-01-28T05:03:07;2.60;99.90
37050;DHT22;22958;51.232;6.826;2023-01-28T05:05:33;2.60;99.90
37050;DHT22;22958;51.232;6.826;2023-01-28T05:07:58;2.50;99.90
37050;DHT22;22958;51.232;6.826;2023-01-28T05:10:25;2.50;99.90
37050;DHT22;22958;51.232;6.826;2023-01-28T05:12:51;2.40;99.90
37050;DHT22;22958;51.232;6.826;2023-01-28T05:15:18;2.40;99.90
37050;DHT22;22958;51.232;6.826;2023-01-28T05:17:43;2.40;99.90
37050;DHT22;22958;51.232;6.826;2023-01-28T05:20:11;2.40;99.90
37050;DHT22;22958;51.232;6.826;2023-01-28T05:22:37;2.40;99.90
37050;DHT22;22958;51.232;6.826;2023-01-28T05:25:02;2.40;99.90
37050;DHT22;22958;51.232;6.826;2023-01-28T05:27:29;2.40;99.90
37050;DHT22;22958;51.232;6.826;2023-01-28T05:29:55;2.40;99.90
37050;DHT22;22958;51.232;6.826;2023-01-28T05:32:21;2.40;99.90
37050;DHT22;22958;51.232;6.826;2023-01-28T05:34:46;2.40;99.90
37050;DHT22;22958;51.232;6.826;2023-01-28T05:37:12;2.40;99.90
37050;DHT22;22958;51.232;6.826;2023-01-28T05:39:37;2.50;99.90
37050;DHT22;22958;51.232;6.826;2023-01-28T05:42:03;2.40;99.90
37050;DHT22;22958;51.232;6.826;2023-01-28T05:44:28;2.40;99.90
37050;DHT22;22958;51.232;6.826;2023-01-28T05:46:54;2.40;99.90
37050;DHT22;22958;51.232;6.826;2023-01-28T05:49:19;2.40;99.90
37050;DHT22;22958;51.232;6.826;2023-01-28T05:51:45;2.30;99.90
37050;DHT22;22958;51.232;6.826;2023-01-28T05:54:12;2.30;99.90
37050;DHT22;22958;51.232;6.826;2023-01-28T05:56:38;2.30;99.90
37050;DHT22;22958;51.232;6.826;2023-01-28T05:59:04;2.30;99.90
37050;DHT22;22958;51.232;6.826;2023-01-28T06:01:30;2.30;99.90
37050;DHT22;22958;51.232;6.826;2023-01-28T06:03:56;2.30;99.90
37050;DHT22;22958;51.232;6.826;2023-01-28T06:06:21;2.30;99.90
37050;DHT22;22958;51.232;6.826;2023-01-28T06:08:47;2.30;99.90
37050;DHT22;22958;51.232;6.826;2023-01-28T06:11:13;2.20;99.90
37050;DHT22;22958;51.232;6.826;2023-01-28T06:13:38;2.20;99.90
37050;DHT22;22958;51.232;6.826;2023-01-28T06:16:06;2.20;99.90
37050;DHT22;22958;51.232;6.826;2023-01-28T06:18:32;2.20;99.90
37050;DHT22;22958;51.232;6.826;2023-01-28T06:20:57;2.20;99.90
37050;DHT22;22958;51.232;6.826;2023-01-28T06:23:23;2.30;99.90
37050;DHT22;22958;51.232;6.826;2023-01-28T06:25:55;2.20;99.90
37050;DHT22;22958;51.232;6.826;2023-01-28T06:28:21;2.20;99.90
37050;DHT22;22958;51.232;6.826;2023-01-28T06:30:50;2.20;99.90
37050;DHT22;22958;51.232;6.826;2023-01-28T06:33:17;2.20;99.90
37050;DHT22;22958;51.232;6.826;2023-01-28T06:35:43;2.20;99.90
37050;DHT22;22958;51.232;6.826;2023-01-28T06:38:09;2.20;99.90
37050;DHT22;22958;51.232;6.826;2023-01-28T06:40:34;2.10;99.90
37050;DHT22;22958;51.232;6.826;2023-01-28T06:43:00;2.10;99.90
37050;DHT22;22958;51.232;6.826;2023-01-28T06:45:25;2.10;99.90
37050;DHT22;22958;51.232;6.826;2023-01-28T06:47:51;2.10;99.90
37050;DHT22;22958;51.232;6.826;2023-01-28T06:50:17;2.10;99.90
37050;DHT22;22958;51.232;6.826;2023-01-28T06:52:42;2.10;99.90
37050;DHT22;22958;51.232;6.826;2023-01-28T06:55:08;2.10;99.90
37050;DHT22;22958;51.232;6.826;2023-01-28T06:57:37;2.10;99.90
37050;DHT22;22958;51.232;6.826;2023-01-28T07:00:05;2.10;99.90
37050;DHT22;22958;51.232;6.826;2023-01-28T07:02:30;2.10;99.90
37050;DHT22;22958;51.232;6.826;2023-01-28T07:04:56;2.10;99.90
37050;DHT22;22958;51.232;6.826;2023-01-28T07:07:21;2.10;99.90
37050;DHT22;22958;51.232;6.826;2023-01-28T07:09:47;2.10;99.90
37050;DHT22;22958;51.232;6.826;2023-01-28T07:12:12;2.20;99.90
37050;DHT22;22958;51.232;6.826;2023-01-28T07:14:38;2.10;99.90
37050;DHT22;22958;51.232;6.826;2023-01-28T07:17:03;2.10;99.90
37050;DHT22;22958;51.232;6.826;2023-01-28T07:19:29;2.10;99.90
37050;DHT22;22958;51.232;6.826;2023-01-28T07:21:54;2.10;99.90
37050;DHT22;22958;51.232;6.826;2023-01-28T07:24:22;2.10;99.90
37050;DHT22;22958;51.232;6.826;2023-01-28T07:26:48;2.00;99.90
37050;DHT22;22958;51.232;6.826;2023-01-28T07:29:13;2.00;99.90
37050;DHT22;22958;51.232;6.826;2023-01-28T07:31:39;2.10;99.90
37050;DHT22;22958;51.232;6.826;2023-01-28T07:34:04;2.00;99.90
37050;DHT22;22958;51.232;6.826;2023-01-28T07:36:30;2.10;99.90
37050;DHT22;22958;51.232;6.826;2023-01-28T07:38:55;2.10;99.90
37050;DHT22;22958;51.232;6.826;2023-01-28T07:41:21;2.10;99.90
37050;DHT22;22958;51.232;6.826;2023-01-28T07:43:46;2.10;99.90
37050;DHT22;22958;51.232;6.826;2023-01-28T07:46:12;2.20;99.90
37050;DHT22;22958;51.232;6.826;2023-01-28T07:48:37;2.20;99.90
37050;DHT22;22958;51.232;6.826;2023-01-28T07:51:03;2.10;99.90
37050;DHT22;22958;51.232;6.826;2023-01-28T07:53:28;2.10;99.90
37050;DHT22;22958;51.232;6.826;2023-01-28T07:55:58;2.10;99.90
37050;DHT22;22958;51.232;6.826;2023-01-28T07:58:25;2.10;99.90
37050;DHT22;22958;51.232;6.826;2023-01-28T08:00:50;2.10;99.90
37050;DHT22;22958;51.232;6.826;2023-01-28T08:03:20;2.10;99.90
37050;DHT22;22958;51.232;6.826;2023-01-28T08:05:47;2.10;99.90
37050;DHT22;22958;51.232;6.826;2023-01-28T08:08:14;2.10;99.90
37050;DHT22;22958;51.232;6.826;2023-01-28T08:10:39;2.10;99.90
37050;DHT22;22958;51.232;6.826;2023-01-28T08:13:06;2.10;99.90
37050;DHT22;22958;51.232;6.826;2023-01-28T08:15:32;2.20;99.90
37050;DHT22;22958;51.232;6.826;2023-01-28T08:17:58;2.20;99.90
37050;DHT22;22958;51.232;6.826;2023-01-28T08:20:26;2.00;99.90
37050;DHT22;22958;51.232;6.826;2023-01-28T08:22:52;2.00;99.90
37050;DHT22;22958;51.232;6.826;2023-01-28T08:25:17;2.00;99.90
37050;DHT22;22958;51.232;6.826;2023-01-28T08:27:43;2.00;99.90
37050;DHT22;22958;51.232;6.826;2023-01-28T08:30:09;2.10;99.90
37050;DHT22;22958;51.232;6.826;2023-01-28T08:32:35;2.00;99.90
37050;DHT22;22958;51.232;6.826;2023-01-28T08:35:00;2.00;99.90
37050;DHT22;22958;51.232;6.826;2023-01-28T08:37:26;2.10;99.90
37050;DHT22;22958;51.232;6.826;2023-01-28T08:39:51;2.00;99.90
37050;DHT22;22958;51.232;6.826;2023-01-28T08:42:17;2.10;99.90
37050;DHT22;22958;51.232;6.826;2023-01-28T08:44:43;2.20;99.90
37050;DHT22;22958;51.232;6.826;2023-01-28T08:47:08;2.20;99.90
37050;DHT22;22958;51.232;6.826;2023-01-28T08:49:34;2.30;99.90
37050;DHT22;22958;51.232;6.826;2023-01-28T08:52:00;2.40;99.90
37050;DHT22;22958;51.232;6.826;2023-01-28T08:54:25;2.30;99.90
37050;DHT22;22958;51.232;6.826;2023-01-28T08:56:50;2.30;99.90
37050;DHT22;22958;51.232;6.826;2023-01-28T08:59:17;2.40;99.90
37050;DHT22;22958;51.232;6.826;2023-01-28T09:01:42;2.50;99.90
37050;DHT22;22958;51.232;6.826;2023-01-28T09:04:08;2.40;99.90
37050;DHT22;22958;51.232;6.826;2023-01-28T09:06:33;2.60;99.90
37050;DHT22;22958;51.232;6.826;2023-01-28T09:08:59;2.70;99.90
37050;DHT22;22958;51.232;6.826;2023-01-28T09:11:26;2.70;99.90
37050;DHT22;22958;51.232;6.826;2023-01-28T09:13:52;2.60;99.90
37050;DHT22;22958;51.232;6.826;2023-01-28T09:16:17;2.40;99.90
37050;DHT22;22958;51.232;6.826;2023-01-28T09:18:43;2.30;99.90
37050;DHT22;22958;51.232;6.826;2023-01-28T09:21:09;2.10;99.90
37050;DHT22;22958;51.232;6.826;2023-01-28T09:23:37;2.00;99.90
37050;DHT22;22958;51.232;6.826;2023-01-28T09:26:04;2.00;99.90
37050;DHT22;22958;51.232;6.826;2023-01-28T09:28:30;2.00;99.90
37050;DHT22;22958;51.232;6.826;2023-01-28T09:31:04;2.00;99.90
37050;DHT22;22958;51.232;6.826;2023-01-28T09:33:31;2.00;99.90
37050;DHT22;22958;51.232;6.826;2023-01-28T09:36:01;2.00;99.90
37050;DHT22;22958;51.232;6.826;2023-01-28T09:38:29;2.10;99.90
37050;DHT22;22958;51.232;6.826;2023-01-28T09:40:54;2.20;99.90
37050;DHT22;22958;51.232;6.826;2023-01-28T09:46:40;2.40;99.90
37050;DHT22;22958;51.232;6.826;2023-01-28T09:49:36;2.60;99.90
37050;DHT22;22958;51.232;6.826;2023-01-28T09:52:04;2.80;99.90
37050;DHT22;22958;51.232;6.826;2023-01-28T09:54:42;2.70;99.90
37050;DHT22;22958;51.232;6.826;2023-01-28T09:57:26;2.70;99.90
37050;DHT22;22958;51.232;6.826;2023-01-28T09:59:54;2.80;99.90
37050;DHT22;22958;51.232;6.826;2023-01-28T10:02:59;2.70;99.90
37050;DHT22;22958;51.232;6.826;2023-01-28T10:05:41;2.60;99.90
37050;DHT22;22958;51.232;6.826;2023-01-28T10:10:47;2.70;99.90
37050;DHT22;22958;51.232;6.826;2023-01-28T10:18:46;2.70;99.90
37050;DHT22;22958;51.232;6.826;2023-01-28T10:21:26;2.70;99.90
37050;DHT22;22958;51.232;6.826;2023-01-28T10:24:02;2.70;99.90
37050;DHT22;22958;51.232;6.826;2023-01-28T10:26:34;2.80;99.90
37050;DHT22;22958;51.232;6.826;2023-01-28T10:29:08;3.00;99.90
37050;DHT22;22958;51.232;6.826;2023-01-28T10:31:40;3.00;99.90
37050;DHT22;22958;51.232;6.826;2023-01-28T10:34:09;3.00;99.90
37050;DHT22;22958;51.232;6.826;2023-01-28T10:36:35;3.10;99.90
37050;DHT22;22958;51.232;6.826;2023-01-28T10:39:00;3.20;99.90
37050;DHT22;22958;51.232;6.826;2023-01-28T10:41:26;3.20;99.90
37050;DHT22;22958;51.232;6.826;2023-01-28T10:43:51;3.20;99.90
37050;DHT22;22958;51.232;6.826;2023-01-28T10:46:29;3.30;99.90
37050;DHT22;22958;51.232;6.826;2023-01-28T10:51:39;3.20;99.90
37050;DHT22;22958;51.232;6.826;2023-01-28T10:54:20;3.30;99.90
37050;DHT22;22958;51.232;6.826;2023-01-28T10:56:48;3.30;99.90
37050;DHT22;22958;51.232;6.826;2023-01-28T10:59:35;3.20;99.90
37050;DHT22;22958;51.232;6.826;2023-01-28T11:02:18;2.60;99.90
37050;DHT22;22958;51.232;6.826;2023-01-28T11:04:44;2.50;99.90
37050;DHT22;22958;51.232;6.826;2023-01-28T11:07:20;2.50;99.90
37050;DHT22;22958;51.232;6.826;2023-01-28T11:09:50;2.50;99.90
37050;DHT22;22958;51.232;6.826;2023-01-28T11:12:27;2.30;99.90
37050;DHT22;22958;51.232;6.826;2023-01-28T11:15:01;2.40;99.90
37050;DHT22;22958;51.232;6.826;2023-01-28T11:17:29;2.40;99.90
37050;DHT22;22958;51.232;6.826;2023-01-28T11:19:59;2.50;99.90
37050;DHT22;22958;51.232;6.826;2023-01-28T11:22:41;2.50;99.90
37050;DHT22;22958;51.232;6.826;2023-01-28T11:27:47;2.50;99.90
37050;DHT22;22958;51.232;6.826;2023-01-28T11:30:25;2.60;99.90
37050;DHT22;22958;51.232;6.826;2023-01-28T11:35:28;2.50;99.90
37050;DHT22;22958;51.232;6.826;2023-01-28T11:37:59;2.60;99.90
37050;DHT22;22958;51.232;6.826;2023-01-28T11:40:26;2.50;99.90
37050;DHT22;22958;51.232;6.826;2023-01-28T11:42:53;2.50;99.90
37050;DHT22;22958;51.232;6.826;2023-01-28T11:45:34;2.70;99.90
37050;DHT22;22958;51.232;6.826;2023-01-28T11:51:06;2.30;99.90
37050;DHT22;22958;51.232;6.826;2023-01-28T11:56:37;2.30;99.90
37050;DHT22;22958;51.232;6.826;2023-01-28T12:02:07;2.50;99.90
37050;DHT22;22958;51.232;6.826;2023-01-28T12:05:15;2.50;99.90
37050;DHT22;22958;51.232;6.826;2023-01-28T12:07:53;2.40;99.90
37050;DHT22;22958;51.232;6.826;2023-01-28T12:15:55;2.40;99.90
37050;DHT22;22958;51.232;6.826;2023-01-28T12:19:02;2.50;99.90
37050;DHT22;22958;51.232;6.826;2023-01-28T12:21:48;2.60;99.90
37050;DHT22;22958;51.232;6.826;2023-01-28T12:24:41;2.80;99.90
37050;DHT22;22958;51.232;6.826;2023-01-28T12:27:23;2.90;99.90
37050;DHT22;22958;51.232;6.826;2023-01-28T12:38:37;3.00;99.90
37050;DHT22;22958;51.232;6.826;2023-01-28T12:41:15;3.10;99.90
37050;DHT22;22958;51.232;6.826;2023-01-28T12:43:59;3.40;99.90
37050;DHT22;22958;51.232;6.826;2023-01-28T12:46:43;3.30;99.90
37050;DHT22;22958;51.232;6.826;2023-01-28T12:49:27;3.60;99.90
37050;DHT22;22958;51.232;6.826;2023-01-28T12:54:28;3.70;99.90
37050;DHT22;22958;51.232;6.826;2023-01-28T12:56:55;3.80;99.90
37050;DHT22;22958;51.232;6.826;2023-01-28T12:59:31;4.00;99.90
37050;DHT22;22958;51.232;6.826;2023-01-28T13:02:19;4.20;99.90
37050;DHT22;22958;51.232;6.826;2023-01-28T13:04:56;4.70;99.90
37050;DHT22;22958;51.232;6.826;2023-01-28T13:10:24;5.30;99.90
37050;DHT22;22958;51.232;6.826;2023-01-28T13:12:52;5.60;99.90
37050;DHT22;22958;51.232;6.826;2023-01-28T13:15:18;7.50;97.70
37050;DHT22;22958;51.232;6.826;2023-01-28T13:17:57;9.40;91.70
37050;DHT22;22958;51.232;6.826;2023-01-28T13:20:55;10.70;85.40
37050;DHT22;22958;51.232;6.826;2023-01-28T13:25:55;14.10;68.00
37050;DHT22;22958;51.232;6.826;2023-01-28T13:28:31;15.70;60.00
37050;DHT22;22958;51.232;6.826;2023-01-28T13:31:06;15.90;54.70
37050;DHT22;22958;51.232;6.826;2023-01-28T13:33:36;13.50;56.70
37050;DHT22;22958;51.232;6.826;2023-01-28T13:36:29;13.50;58.40
37050;DHT22;22958;51.232;6.826;2023-01-28T13:39:07;14.40;56.50
37050;DHT22;22958;51.232;6.826;2023-01-28T13:41:48;12.80;58.50
37050;DHT22;22958;51.232;6.826;2023-01-28T13:44:43;12.40;59.10
37050;DHT22;22958;51.232;6.826;2023-01-28T13:50:01;13.80;58.00
37050;DHT22;22958;51.232;6.826;2023-01-28T13:52:34;13.70;55.70
37050;DHT22;22958;51.232;6.826;2023-01-28T13:57:52;11.70;59.50
37050;DHT22;22958;51.232;6.826;2023-01-28T14:00:40;14.10;57.20
37050;DHT22;22958;51.232;6.826;2023-01-28T14:17:52;12.30;55.20
37050;DHT22;22958;51.232;6.826;2023-01-28T14:20:43;10.10;60.40
37050;DHT22;22958;51.232;6.826;2023-01-28T14:23:20;9.00;64.50
37050;DHT22;22958;51.232;6.826;2023-01-28T14:31:04;6.60;75.50
37050;DHT22;22958;51.232;6.826;2023-01-28T14:33:31;6.50;76.00
37050;DHT22;22958;51.232;6.826;2023-01-28T14:35:57;6.10;77.40
37050;DHT22;22958;51.232;6.826;2023-01-28T14:38:23;5.70;78.30
37050;DHT22;22958;51.232;6.826;2023-01-28T14:40:53;5.50;80.90
37050;DHT22;22958;51.232;6.826;2023-01-28T14:43:21;5.70;81.70
37050;DHT22;22958;51.232;6.826;2023-01-28T14:48:23;6.90;78.60
37050;DHT22;22958;51.232;6.826;2023-01-28T14:51:05;7.20;78.70
37050;DHT22;22958;51.232;6.826;2023-01-28T14:53:48;8.80;75.20
37050;DHT22;22958;51.232;6.826;2023-01-28T14:56:37;10.20;70.60
37050;DHT22;22958;51.232;6.826;2023-01-28T14:59:28;11.90;65.60
37050;DHT22;22958;51.232;6.826;2023-01-28T15:01:57;12.10;62.40
37050;DHT22;22958;51.232;6.826;2023-01-28T15:04:32;12.20;62.30
37050;DHT22;22958;51.232;6.826;2023-01-28T15:07:14;11.80;61.60
37050;DHT22;22958;51.232;6.826;2023-01-28T15:09:40;12.10;60.60
37050;DHT22;22958;51.232;6.826;2023-01-28T15:12:06;12.50;59.80
37050;DHT22;22958;51.232;6.826;2023-01-28T15:14:32;13.00;58.20
37050;DHT22;22958;51.232;6.826;2023-01-28T15:16:58;12.10;58.90
37050;DHT22;22958;51.232;6.826;2023-01-28T15:19:27;11.60;60.60
37050;DHT22;22958;51.232;6.826;2023-01-28T15:22:01;10.90;62.20
37050;DHT22;22958;51.232;6.826;2023-01-28T15:24:27;10.70;64.20
37050;DHT22;22958;51.232;6.826;2023-01-28T15:26:53;10.30;64.20
37050;DHT22;22958;51.232;6.826;2023-01-28T15:29:24;9.70;66.10
37050;DHT22;22958;51.232;6.826;2023-01-28T15:31:49;10.00;67.00
37050;DHT22;22958;51.232;6.826;2023-01-28T15:34:18;9.80;65.40
37050;DHT22;22958;51.232;6.826;2023-01-28T15:36:45;9.40;66.20
37050;DHT22;22958;51.232;6.826;2023-01-28T15:39:22;8.70;67.50
37050;DHT22;22958;51.232;6.826;2023-01-28T15:42:04;7.30;70.00
37050;DHT22;22958;51.232;6.826;2023-01-28T15:44:42;6.30;74.20
37050;DHT22;22958;51.232;6.826;2023-01-28T15:47:15;5.70;77.20
37050;DHT22;22958;51.232;6.826;2023-01-28T15:49:44;5.00;79.50
37050;DHT22;22958;51.232;6.826;2023-01-28T15:52:11;4.20;83.60
37050;DHT22;22958;51.232;6.826;2023-01-28T15:54:42;3.70;89.70
37050;DHT22;22958;51.232;6.826;2023-01-28T15:59:40;3.30;99.90
37050;DHT22;22958;51.232;6.826;2023-01-28T16:02:22;3.10;99.90
37050;DHT22;22958;51.232;6.826;2023-01-28T16:05:02;2.70;99.90
37050;DHT22;22958;51.232;6.826;2023-01-28T16:07:30;2.50;99.90
37050;DHT22;22958;51.232;6.826;2023-01-28T16:09:59;2.30;99.90
37050;DHT22;22958;51.232;6.826;2023-01-28T16:12:26;2.20;99.90
37050;DHT22;22958;51.232;6.826;2023-01-28T16:14:56;2.20;99.90
37050;DHT22;22958;51.232;6.826;2023-01-28T16:17:26;2.20;99.90
37050;DHT22;22958;51.232;6.826;2023-01-28T16:20:03;2.10;99.90
37050;DHT22;22958;51.232;6.826;2023-01-28T16:22:37;2.00;99.90
37050;DHT22;22958;51.232;6.826;2023-01-28T16:27:48;1.90;99.90
37050;DHT22;22958;51.232;6.826;2023-01-28T16:30:14;1.80;99.90
37050;DHT22;22958;51.232;6.826;2023-01-28T16:32:41;1.80;99.90
37050;DHT22;22958;51.232;6.826;2023-01-28T16:35:23;1.80;99.90
37050;DHT22;22958;51.232;6.826;2023-01-28T16:37:50;1.70;99.90
37050;DHT22;22958;51.232;6.826;2023-01-28T16:40:18;1.60;99.90
37050;DHT22;22958;51.232;6.826;2023-01-28T16:42:44;1.60;99.90
37050;DHT22;22958;51.232;6.826;2023-01-28T16:45:16;1.50;99.90
37050;DHT22;22958;51.232;6.826;2023-01-28T16:47:42;1.50;99.90
37050;DHT22;22958;51.232;6.826;2023-01-28T16:50:10;1.50;99.90
37050;DHT22;22958;51.232;6.826;2023-01-28T16:52:36;1.40;99.90
37050;DHT22;22958;51.232;6.826;2023-01-28T16:55:02;1.40;99.90
37050;DHT22;22958;51.232;6.826;2023-01-28T16:57:29;1.30;99.90
37050;DHT22;22958;51.232;6.826;2023-01-28T16:59:56;1.30;99.90
37050;DHT22;22958;51.232;6.826;2023-01-28T17:02:22;1.30;99.90
37050;DHT22;22958;51.232;6.826;2023-01-28T17:04:47;1.20;99.90
37050;DHT22;22958;51.232;6.826;2023-01-28T17:07:13;1.20;99.90
37050;DHT22;22958;51.232;6.826;2023-01-28T17:09:39;1.10;99.90
37050;DHT22;22958;51.232;6.826;2023-01-28T17:12:04;1.10;99.90
37050;DHT22;22958;51.232;6.826;2023-01-28T17:14:30;1.10;99.90
37050;DHT22;22958;51.232;6.826;2023-01-28T17:16:56;1.00;99.90
37050;DHT22;22958;51.232;6.826;2023-01-28T17:19:21;1.00;99.90
37050;DHT22;22958;51.232;6.826;2023-01-28T17:21:47;1.00;99.90
37050;DHT22;22958;51.232;6.826;2023-01-28T17:24:12;0.90;99.90
37050;DHT22;22958;51.232;6.826;2023-01-28T17:26:38;0.90;99.90
37050;DHT22;22958;51.232;6.826;2023-01-28T17:29:04;0.80;99.90
37050;DHT22;22958;51.232;6.826;2023-01-28T17:31:30;0.70;99.90
37050;DHT22;22958;51.232;6.826;2023-01-28T17:33:57;0.80;99.90
37050;DHT22;22958;51.232;6.826;2023-01-28T17:36:24;0.90;99.90
37050;DHT22;22958;51.232;6.826;2023-01-28T17:38:50;0.90;99.90
37050;DHT22;22958;51.232;6.826;2023-01-28T17:41:16;0.90;99.90
37050;DHT22;22958;51.232;6.826;2023-01-28T17:43:42;0.80;99.90
37050;DHT22;22958;51.232;6.826;2023-01-28T17:46:12;0.90;99.90
37050;DHT22;22958;51.232;6.826;2023-01-28T17:48:38;0.70;99.90
37050;DHT22;22958;51.232;6.826;2023-01-28T17:51:04;0.80;99.90
37050;DHT22;22958;51.232;6.826;2023-01-28T17:53:30;0.80;99.90
37050;DHT22;22958;51.232;6.826;2023-01-28T17:55:56;0.80;99.90
37050;DHT22;22958;51.232;6.826;2023-01-28T17:58:21;0.70;99.90